sensor_id;sensor_type;location;lat;lon;timestamp;temperature;humidity
14775;DHT22;7479;47.042;15.160;2024-03-07T07:46:44;4.40;99.90
14775;DHT22;7479;47.042;15.160;2024-03-07T07:59:01;4.70;99.90
14775;DHT22;7479;47.042;15.160;2024-03-07T08:03:56;4.90;99.90
14775;DHT22;7479;47.042;15.160;2024-03-07T08:08:50;5.10;99.90
14775;DHT22;7479;47.042;15.160;2024-03-07T08:13:44;5.20;99.90
14775;DHT22;7479;47.042;15.160;2024-03-07T08:18:42;5.50;99.90
14775;DHT22;7479;47.042;15.160;2024-03-07T08:23:36;6.00;99.90
14775;DHT22;7479;47.042;15.160;2024-03-07T08:28:30;6.30;99.90
14775;DHT22;7479;47.042;15.160;2024-03-07T08:33:24;6.60;99.90
14775;DHT22;7479;47.042;15.160;2024-03-07T08:38:20;6.70;99.90
14775;DHT22;7479;47.042;15.160;2024-03-07T08:43:13;7.00;99.90
14775;DHT22;7479;47.042;15.160;2024-03-07T08:48:07;7.30;99.90
14775;DHT22;7479;47.042;15.160;2024-03-07T08:53:03;7.60;99.90
14775;DHT22;7479;47.042;15.160;2024-03-07T08:57:59;7.80;99.90
14775;DHT22;7479;47.042;15.160;2024-03-07T09:02:54;7.90;99.90
14775;DHT22;7479;47.042;15.160;2024-03-07T09:07:53;8.20;99.90
14775;DHT22;7479;47.042;15.160;2024-03-07T09:12:49;8.50;99.90
14775;DHT22;7479;47.042;15.160;2024-03-07T09:17:46;8.70;99.90
14775;DHT22;7479;47.042;15.160;2024-03-07T09:22:40;8.90;99.90
14775;DHT22;7479;47.042;15.160;2024-03-07T09:27:34;9.00;99.90
14775;DHT22;7479;47.042;15.160;2024-03-07T09:32:28;9.00;99.90
14775;DHT22;7479;47.042;15.160;2024-03-07T09:37:27;8.90;99.90
14775;DHT22;7479;47.042;15.160;2024-03-07T09:42:21;8.90;99.90
14775;DHT22;7479;47.042;15.160;2024-03-07T09:47:16;8.90;99.90
14775;DHT22;7479;47.042;15.160;2024-03-07T09:52:11;8.90;99.90
14775;DHT22;7479;47.042;15.160;2024-03-07T09:57:11;9.00;99.90
14775;DHT22;7479;47.042;15.160;2024-03-07T10:02:06;9.10;99.90
14775;DHT22;7479;47.042;15.160;2024-03-07T10:07:00;9.10;99.90
14775;DHT22;7479;47.042;15.160;2024-03-07T10:11:58;9.20;99.90
14775;DHT22;7479;47.042;15.160;2024-03-07T10:16:55;9.10;98.30
14775;DHT22;7479;47.042;15.160;2024-03-07T10:21:49;9.20;97.90
14775;DHT22;7479;47.042;15.160;2024-03-07T10:26:44;9.30;97.20
14775;DHT22;7479;47.042;15.160;2024-03-07T10:31:38;9.50;97.20
14775;DHT22;7479;47.042;15.160;2024-03-07T10:36:45;9.50;96.70
14775;DHT22;7479;47.042;15.160;2024-03-07T10:41:44;9.50;95.90
14775;DHT22;7479;47.042;15.160;2024-03-07T10:46:40;9.60;94.80
14775;DHT22;7479;47.042;15.160;2024-03-07T10:51:40;9.60;94.80
14775;DHT22;7479;47.042;15.160;2024-03-07T10:56:47;9.60;94.70
14775;DHT22;7479;47.042;15.160;2024-03-07T11:01:57;9.50;94.70
14775;DHT22;7479;47.042;15.160;2024-03-07T11:06:53;9.40;93.60
14775;DHT22;7479;47.042;15.160;2024-03-07T11:11:49;9.30;93.60
14775;DHT22;7479;47.042;15.160;2024-03-07T11:16:44;9.30;93.20
14775;DHT22;7479;47.042;15.160;2024-03-07T11:21:41;9.30;93.00
14775;DHT22;7479;47.042;15.160;2024-03-07T11:26:35;9.40;93.30
14775;DHT22;7479;47.042;15.160;2024-03-07T11:31:31;9.40;92.50
14775;DHT22;7479;47.042;15.160;2024-03-07T11:36:44;9.30;91.90
14775;DHT22;7479;47.042;15.160;2024-03-07T11:41:39;9.30;94.70
14775;DHT22;7479;47.042;15.160;2024-03-07T11:46:34;9.30;95.70
14775;DHT22;7479;47.042;15.160;2024-03-07T11:51:35;9.30;95.90
14775;DHT22;7479;47.042;15.160;2024-03-07T11:56:29;9.40;95.70
14775;DHT22;7479;47.042;15.160;2024-03-07T12:01:23;9.50;95.70
14775;DHT22;7479;47.042;15.160;2024-03-07T12:06:20;9.80;96.40
14775;DHT22;7479;47.042;15.160;2024-03-07T12:11:15;9.70;97.30
14775;DHT22;7479;47.042;15.160;2024-03-07T12:16:09;9.50;98.60
14775;DHT22;7479;47.042;15.160;2024-03-07T12:21:03;9.80;98.40
14775;DHT22;7479;47.042;15.160;2024-03-07T12:26:03;11.00;96.30
14775;DHT22;7479;47.042;15.160;2024-03-07T12:30:58;11.70;93.60
14775;DHT22;7479;47.042;15.160;2024-03-07T12:35:54;11.20;92.90
14775;DHT22;7479;47.042;15.160;2024-03-07T12:41:04;10.60;95.40
14775;DHT22;7479;47.042;15.160;2024-03-07T12:46:06;9.90;97.00
14775;DHT22;7479;47.042;15.160;2024-03-07T12:51:01;9.50;96.70
14775;DHT22;7479;47.042;15.160;2024-03-07T12:55:55;9.20;98.50
14775;DHT22;7479;47.042;15.160;2024-03-07T13:00:50;9.10;98.30
14775;DHT22;7479;47.042;15.160;2024-03-07T13:05:44;8.80;98.30
14775;DHT22;7479;47.042;15.160;2024-03-07T13:10:38;8.90;99.60
14775;DHT22;7479;47.042;15.160;2024-03-07T13:15:33;8.70;99.30
14775;DHT22;7479;47.042;15.160;2024-03-07T14:41:00;7.30;99.90
14775;DHT22;7479;47.042;15.160;2024-03-07T14:45:54;7.50;99.90
14775;DHT22;7479;47.042;15.160;2024-03-07T14:50:48;9.20;99.90
14775;DHT22;7479;47.042;15.160;2024-03-07T14:55:43;9.40;99.90
14775;DHT22;7479;47.042;15.160;2024-03-07T15:00:39;12.70;99.20
14775;DHT22;7479;47.042;15.160;2024-03-07T15:05:48;11.90;96.90
14775;DHT22;7479;47.042;15.160;2024-03-07T15:10:45;10.00;98.50
